LOWI/INN METAR and TAF weather

Enter ICAO airport designator
Station Type Date Time Source
LOWI METAR 2021/05/12 05:20 UTC NOAA

LOWI 120520Z VRB01KT 9999 -RA FEW006 SCT015 BKN035 09/08 Q1013 NOSIG


Station Type Date Time Source
LOWI Decoded METAR 2021/05/12 05:20 UTC NOAA

Innsbruck-Flughafen, Austria (LOWI) 47-16N 011-21E 593M
May 12, 2021 - 01:20 AM EDT / 2021.05.12 0520 UTC
Wind: Variable at 1 MPH (1 KT):0
Visibility: greater than 7 mile(s):0
Sky conditions: mostly cloudy
Weather: light rain
Temperature: 48 F (9 C)
Dew Point: 46 F (8 C)
Relative Humidity: 93%
Pressure (altimeter): 29.91 in. Hg (1013 hPa)
ob: LOWI 120520Z VRB01KT 9999 -RA FEW006 SCT015 BKN035 09/08 Q1013 NOSIG
cycle: 5

Station Type Date Time Source
LOWI TAF 2021/05/12 06:21 UTC NOAA

TAF LOWI 120515Z 1206/1306 27005KT 9999 SCT010 BKN040 TX12/1212Z TN08/1304Z
TEMPO 1206/1306 09007KT RA PROB40
TEMPO 1300/1306 BKN010

Example: see airport list